Tancred — LALX4 — position and weather

sailwx.info

Track history (hours):
 
Tides and Currents Weather Stations Pressure Air Temp Water Temp Dewpoint Dewpoint Depression Visibility Wind Speed Wind Dir Waves Ship Positions

Tancred

Last reported at 2014-Jul-29 02:30 UTC. Time now 2014-Jul-29 04:41 UTC.
Position N 31°23' E 032°17'.

Length 190 m; draft 9 m.

Type: Cargo ship. MMSI: 258787000.

Date/timePositionNaut miles runAvg speedWind from/ knotsBaromVisibWave heightAir tempDewpointWater temp
2014-Jul-29 02:30N 31°23' E 032°17'0 0.0
2014-Jul-29 01:34N 31°23' E 032°17'0 0.0
2014-Jul-29 00:03N 31°23' E 032°17'0 0.0
2014-Jul-28 23:34N 31°23' E 032°17'0 0.0
2014-Jul-28 22:30N 31°23' E 032°17'0 0.0
2014-Jul-28 21:22N 31°23' E 032°17'0 0.0
2014-Jul-28 20:33N 31°23' E 032°17'1 1.3
2014-Jul-28 19:33N 31°23' E 032°16'8 7.4
2014-Jul-28 18:31N 31°30' E 032°14'1314.0
2014-Jul-28 17:33N 31°40' E 032°03'1514.9
2014-Jul-28 16:33N 31°47' E 031°47'1515.3
2014-Jul-28 15:33N 31°52' E 031°30'1515.3
2014-Jul-28 14:33N 31°57' E 031°13'1515.1
2014-Jul-28 13:33N 32°02' E 030°56'1515.1
2014-Jul-28 12:33N 32°07' E 030°40'1615.2
2014-Jul-28 11:29N 32°11' E 030°21'1915.0
2014-Jul-28 10:14N 32°16' E 029°60'1014.8
2014-Jul-28 09:32N 32°19' E 029°48'2114.8
2014-Jul-28 08:08N 32°25' E 029°25'1014.9
2014-Jul-28 07:29N 32°28' E 029°14'2115.5
2014-Jul-28 06:09N 32°35' E 028°50'2814.3
2014-Jul-28 04:10N 32°43' E 028°18'914.3
2014-Jul-28 03:33N 32°46' E 028°09'1414.0
2014-Jul-28 02:33N 32°51' E 027°53'6014.6
2014-Jul-27 22:28N 33°09' E 026°45'26915.0
2014-Jul-27 04:33N 34°30' E 021°37'2114.6
2014-Jul-27 03:08N 34°37' E 021°13'1014.6
2014-Jul-27 02:29N 34°40' E 021°02'25614.7
2014-Jul-26 09:06N 35°57' E 016°03'814.7
2014-Jul-26 08:33N 35°60' E 015°54'1514.7
2014-Jul-26 07:33N 36°04' E 015°37'1515.1
2014-Jul-26 06:33N 36°09' E 015°19'1515.5
2014-Jul-26 05:33N 36°14' E 015°00'1616.0
2014-Jul-26 04:33N 36°19' E 014°42'1615.7
2014-Jul-26 03:33N 36°23' E 014°23'1515.2
2014-Jul-26 02:33N 36°28' E 014°05'1515.5
2014-Jul-26 01:33N 36°33' E 013°47'1515.4
2014-Jul-26 00:33N 36°37' E 013°28'1515.2
2014-Jul-25 23:33N 36°42' E 013°10'1616.2
2014-Jul-25 22:33N 36°47' E 012°51'1615.9
2014-Jul-25 21:33N 36°52' E 012°32'1615.8
2014-Jul-25 20:33N 36°57' E 012°13'1515.3
2014-Jul-25 19:33N 37°03' E 011°56'1515.1
2014-Jul-25 18:32N 37°10' E 011°39'1515.0
2014-Jul-25 17:33N 37°17' E 011°22'1714.5
2014-Jul-25 16:23N 37°25' E 011°04'1214.5
2014-Jul-25 15:33N 37°28' E 010°49'1514.6
2014-Jul-25 14:33N 37°31' E 010°31'2015.1
2014-Jul-25 13:15N 37°34' E 010°06'1115.6
2014-Jul-25 12:33N 37°34' E 009°53'1515.5
2014-Jul-25 11:33N 37°35' E 009°33'1515.3
2014-Jul-25 10:33N 37°36' E 009°14'1515.3
2014-Jul-25 09:33N 37°37' E 008°55'1515.1
2014-Jul-25 08:33N 37°35' E 008°36'1414.5
2014-Jul-25 07:33N 37°33' E 008°18'1514.5
2014-Jul-25 06:33N 37°31' E 007°60'2814.2
2014-Jul-25 04:33N 37°26' E 007°24'3614.5
2014-Jul-25 02:05N 37°23' E 006°39'2214.1
2014-Jul-25 00:33N 37°20' E 006°12'1813.9
2014-Jul-24 23:17N 37°18' E 005°50'1014.4
2014-Jul-24 22:33N 37°17' E 005°37'1413.9
2014-Jul-24 21:33N 37°16' E 005°20'1414.0
2014-Jul-24 20:33N 37°15' E 005°02'1414.4
2014-Jul-24 19:33N 37°14' E 004°44'1514.7
2014-Jul-24 18:33N 37°14' E 004°26'1514.9
2014-Jul-24 17:33N 37°13' E 004°07'1514.8
2014-Jul-24 16:33N 37°12' E 003°48'1413.7
2014-Jul-24 15:33N 37°11' E 003°31'0 0.4
2014-Jul-24 14:22N 37°11' E 003°32'0 0.4
2014-Jul-24 13:28N 37°11' E 003°32'0 0.2
2014-Jul-24 12:24N 37°11' E 003°33'1 0.8
2014-Jul-24 11:33N 37°11' E 003°32'1212.1
2014-Jul-24 10:33N 37°09' E 003°17'1616.0
2014-Jul-24 09:33N 37°08' E 002°57'1615.3
2014-Jul-24 08:30N 37°04' E 002°37'1515.1
2014-Jul-24 07:33N 36°59' E 002°20'1515.2
2014-Jul-24 06:33N 36°57' E 002°01'1915.5
2014-Jul-24 05:21N 36°54' E 001°38'3015.7
2014-Jul-24 03:27N 36°49' E 001°02'2015.6
2014-Jul-24 02:11N 36°46' E 000°37'1015.9
2014-Jul-24 01:34N 36°45' E 000°25'1615.6
2014-Jul-24 00:33N 36°41' E 000°06'1615.7
2014-Jul-23 23:33N 36°38' W 000°13'1616.0
2014-Jul-23 22:33N 36°36' W 000°33'1615.5
2014-Jul-23 21:33N 36°33' W 000°52'4815.2
2014-Jul-23 18:24N 36°25' W 001°51'12615.6
2014-Jul-23 10:20N 36°05' W 004°25'4415.5
2014-Jul-23 07:30N 35°59' W 005°19'4515.4
2014-Jul-23 04:33N 35°54' W 006°14'2914.6
2014-Jul-23 02:33N 36°02' W 006°49'1414.4
2014-Jul-23 01:34N 36°05' W 007°06'1414.3
2014-Jul-23 00:33N 36°08' W 007°24'1414.5
2014-Jul-22 23:33N 36°12' W 007°41'1514.5
2014-Jul-22 22:33N 36°15' W 007°59'1514.6
2014-Jul-22 21:33N 36°21' W 008°15'1514.8
2014-Jul-22 20:33N 36°24' W 008°33'1514.6
2014-Jul-22 19:33N 36°28' W 008°51'1514.6
2014-Jul-22 18:33N 36°32' W 009°08'1414.5
2014-Jul-22 17:33N 36°39' W 009°24'1414.5
2014-Jul-22 16:34N 36°51' W 009°34'1515.1
2014-Jul-22 15:34N 37°06' W 009°38'1515.1
2014-Jul-22 14:33N 37°21' W 009°43'1515.2
2014-Jul-22 13:33N 37°35' W 009°47'1515.2
2014-Jul-22 12:33N 37°50' W 009°51'1515.4
2014-Jul-22 11:33N 38°05' W 009°56'1615.5
2014-Jul-22 10:33N 38°20' W 010°00'1514.9
2014-Jul-22 09:33N 38°35' W 010°04'1515.0
2014-Jul-22 08:33N 38°50' W 010°07'1514.8
2014-Jul-22 07:33N 39°05' W 010°07'1515.0
2014-Jul-22 06:33N 39°19' W 010°07'2315.4
2014-Jul-22 05:03N 39°43' W 010°06'1315.3
2014-Jul-22 04:13N 39°55' W 010°05'1315.4
2014-Jul-22 03:23N 40°08' W 010°06'1315.6
2014-Jul-22 02:34N 40°21' W 010°06'2115.4
2014-Jul-22 01:13N 40°42' W 010°06'64913.9
2014-Jul-20 02:33N 50°03' W 002°25'2411.9
2014-Jul-20 00:33N 50°10' W 001°49'1312.5
2014-Jul-19 23:32N 50°14' W 001°30'1414.2
2014-Jul-19 22:33N 50°18' W 001°10'2216.1
2014-Jul-19 21:13N 50°24' W 000°37'1015.7
2014-Jul-19 20:33N 50°28' W 000°22'1615.7
2014-Jul-19 19:33N 50°32' E 000°02'1515.3
2014-Jul-19 18:33N 50°36' E 000°25'1414.2
2014-Jul-19 17:33N 50°42' E 000°46'1413.6
2014-Jul-19 16:33N 50°50' E 001°03'1312.9
2014-Jul-19 15:33N 50°59' E 001°18'1414.6
2014-Jul-19 14:34N 51°08' E 001°35'1616.0
2014-Jul-19 13:33N 51°20' E 001°52'1716.5
2014-Jul-19 12:34N 51°34' E 002°06'1615.9
2014-Jul-19 11:33N 51°46' E 002°24'1515.1
2014-Jul-19 10:33N 51°57' E 002°40'1514.3
2014-Jul-19 09:29N 52°09' E 002°56'1713.6
2014-Jul-19 08:15N 52°23' E 003°12'1313.3
2014-Jul-19 07:16N 52°33' E 003°25'1013.2
2014-Jul-19 06:32N 52°41' E 003°35'1414.2
2014-Jul-19 05:34N 52°51' E 003°50'1515.2
2014-Jul-19 04:33N 53°02' E 004°07'1515.2
2014-Jul-19 03:34N 53°13' E 004°25'1514.6
2014-Jul-19 02:33N 53°26' E 004°35'  
Track history (hours):
 
Tides and Currents Weather Stations Pressure Air Temp Water Temp Dewpoint Dewpoint Depression Visibility Wind Speed Wind Dir Waves Ship Positions

Tancred

Last reported at 2014-Jul-29 02:30 UTC. Time now 2014-Jul-29 04:41 UTC.
Position N 31°23' E 032°17'.

Length 190 m; draft 9 m.

Type: Cargo ship. MMSI: 258787000.

Date/timePositionNaut miles runAvg speedWind from/ knotsBaromVisibWave heightAir tempDewpointWater temp
2014-Jul-29 02:30N 31°23' E 032°17'0 0.0
2014-Jul-29 01:34N 31°23' E 032°17'0 0.0
2014-Jul-29 00:03N 31°23' E 032°17'0 0.0
2014-Jul-28 23:34N 31°23' E 032°17'0 0.0
2014-Jul-28 22:30N 31°23' E 032°17'0 0.0
2014-Jul-28 21:22N 31°23' E 032°17'0 0.0
2014-Jul-28 20:33N 31°23' E 032°17'1 1.3
2014-Jul-28 19:33N 31°23' E 032°16'8 7.4
2014-Jul-28 18:31N 31°30' E 032°14'1314.0
2014-Jul-28 17:33N 31°40' E 032°03'1514.9
2014-Jul-28 16:33N 31°47' E 031°47'1515.3
2014-Jul-28 15:33N 31°52' E 031°30'1515.3
2014-Jul-28 14:33N 31°57' E 031°13'1515.1
2014-Jul-28 13:33N 32°02' E 030°56'1515.1
2014-Jul-28 12:33N 32°07' E 030°40'1615.2
2014-Jul-28 11:29N 32°11' E 030°21'1915.0
2014-Jul-28 10:14N 32°16' E 029°60'1014.8
2014-Jul-28 09:32N 32°19' E 029°48'2114.8
2014-Jul-28 08:08N 32°25' E 029°25'1014.9
2014-Jul-28 07:29N 32°28' E 029°14'2115.5
2014-Jul-28 06:09N 32°35' E 028°50'2814.3
2014-Jul-28 04:10N 32°43' E 028°18'914.3
2014-Jul-28 03:33N 32°46' E 028°09'1414.0
2014-Jul-28 02:33N 32°51' E 027°53'6014.6
2014-Jul-27 22:28N 33°09' E 026°45'26915.0
2014-Jul-27 04:33N 34°30' E 021°37'2114.6
2014-Jul-27 03:08N 34°37' E 021°13'1014.6
2014-Jul-27 02:29N 34°40' E 021°02'25614.7
2014-Jul-26 09:06N 35°57' E 016°03'814.7
2014-Jul-26 08:33N 35°60' E 015°54'1514.7
2014-Jul-26 07:33N 36°04' E 015°37'1515.1
2014-Jul-26 06:33N 36°09' E 015°19'1515.5
2014-Jul-26 05:33N 36°14' E 015°00'1616.0
2014-Jul-26 04:33N 36°19' E 014°42'1615.7
2014-Jul-26 03:33N 36°23' E 014°23'1515.2
2014-Jul-26 02:33N 36°28' E 014°05'1515.5
2014-Jul-26 01:33N 36°33' E 013°47'1515.4
2014-Jul-26 00:33N 36°37' E 013°28'1515.2
2014-Jul-25 23:33N 36°42' E 013°10'1616.2
2014-Jul-25 22:33N 36°47' E 012°51'1615.9
2014-Jul-25 21:33N 36°52' E 012°32'1615.8
2014-Jul-25 20:33N 36°57' E 012°13'1515.3
2014-Jul-25 19:33N 37°03' E 011°56'1515.1
2014-Jul-25 18:32N 37°10' E 011°39'1515.0
2014-Jul-25 17:33N 37°17' E 011°22'1714.5
2014-Jul-25 16:23N 37°25' E 011°04'1214.5
2014-Jul-25 15:33N 37°28' E 010°49'1514.6
2014-Jul-25 14:33N 37°31' E 010°31'2015.1
2014-Jul-25 13:15N 37°34' E 010°06'1115.6
2014-Jul-25 12:33N 37°34' E 009°53'1515.5
2014-Jul-25 11:33N 37°35' E 009°33'1515.3
2014-Jul-25 10:33N 37°36' E 009°14'1515.3
2014-Jul-25 09:33N 37°37' E 008°55'1515.1
2014-Jul-25 08:33N 37°35' E 008°36'1414.5
2014-Jul-25 07:33N 37°33' E 008°18'1514.5
2014-Jul-25 06:33N 37°31' E 007°60'2814.2
2014-Jul-25 04:33N 37°26' E 007°24'3614.5
2014-Jul-25 02:05N 37°23' E 006°39'2214.1
2014-Jul-25 00:33N 37°20' E 006°12'1813.9
2014-Jul-24 23:17N 37°18' E 005°50'1014.4
2014-Jul-24 22:33N 37°17' E 005°37'1413.9
2014-Jul-24 21:33N 37°16' E 005°20'1414.0
2014-Jul-24 20:33N 37°15' E 005°02'1414.4
2014-Jul-24 19:33N 37°14' E 004°44'1514.7
2014-Jul-24 18:33N 37°14' E 004°26'1514.9
2014-Jul-24 17:33N 37°13' E 004°07'1514.8
2014-Jul-24 16:33N 37°12' E 003°48'1413.7
2014-Jul-24 15:33N 37°11' E 003°31'0 0.4
2014-Jul-24 14:22N 37°11' E 003°32'0 0.4
2014-Jul-24 13:28N 37°11' E 003°32'0 0.2
2014-Jul-24 12:24N 37°11' E 003°33'1 0.8
2014-Jul-24 11:33N 37°11' E 003°32'1212.1
2014-Jul-24 10:33N 37°09' E 003°17'1616.0
2014-Jul-24 09:33N 37°08' E 002°57'1615.3
2014-Jul-24 08:30N 37°04' E 002°37'1515.1
2014-Jul-24 07:33N 36°59' E 002°20'1515.2
2014-Jul-24 06:33N 36°57' E 002°01'1915.5
2014-Jul-24 05:21N 36°54' E 001°38'3015.7
2014-Jul-24 03:27N 36°49' E 001°02'2015.6
2014-Jul-24 02:11N 36°46' E 000°37'1015.9
2014-Jul-24 01:34N 36°45' E 000°25'1615.6
2014-Jul-24 00:33N 36°41' E 000°06'1615.7
2014-Jul-23 23:33N 36°38' W 000°13'1616.0
2014-Jul-23 22:33N 36°36' W 000°33'1615.5
2014-Jul-23 21:33N 36°33' W 000°52'4815.2
2014-Jul-23 18:24N 36°25' W 001°51'12615.6
2014-Jul-23 10:20N 36°05' W 004°25'4415.5
2014-Jul-23 07:30N 35°59' W 005°19'4515.4
2014-Jul-23 04:33N 35°54' W 006°14'2914.6
2014-Jul-23 02:33N 36°02' W 006°49'1414.4
2014-Jul-23 01:34N 36°05' W 007°06'1414.3
2014-Jul-23 00:33N 36°08' W 007°24'1414.5
2014-Jul-22 23:33N 36°12' W 007°41'1514.5
2014-Jul-22 22:33N 36°15' W 007°59'1514.6
2014-Jul-22 21:33N 36°21' W 008°15'1514.8
2014-Jul-22 20:33N 36°24' W 008°33'1514.6
2014-Jul-22 19:33N 36°28' W 008°51'1514.6
2014-Jul-22 18:33N 36°32' W 009°08'1414.5
2014-Jul-22 17:33N 36°39' W 009°24'1414.5
2014-Jul-22 16:34N 36°51' W 009°34'1515.1
2014-Jul-22 15:34N 37°06' W 009°38'1515.1
2014-Jul-22 14:33N 37°21' W 009°43'1515.2
2014-Jul-22 13:33N 37°35' W 009°47'1515.2
2014-Jul-22 12:33N 37°50' W 009°51'1515.4
2014-Jul-22 11:33N 38°05' W 009°56'1615.5
2014-Jul-22 10:33N 38°20' W 010°00'1514.9
2014-Jul-22 09:33N 38°35' W 010°04'1515.0
2014-Jul-22 08:33N 38°50' W 010°07'1514.8
2014-Jul-22 07:33N 39°05' W 010°07'1515.0
2014-Jul-22 06:33N 39°19' W 010°07'2315.4
2014-Jul-22 05:03N 39°43' W 010°06'1315.3
2014-Jul-22 04:13N 39°55' W 010°05'1315.4
2014-Jul-22 03:23N 40°08' W 010°06'1315.6
2014-Jul-22 02:34N 40°21' W 010°06'2115.4
2014-Jul-22 01:13N 40°42' W 010°06'64913.9
2014-Jul-20 02:33N 50°03' W 002°25'2411.9
2014-Jul-20 00:33N 50°10' W 001°49'1312.5
2014-Jul-19 23:32N 50°14' W 001°30'1414.2
2014-Jul-19 22:33N 50°18' W 001°10'2216.1
2014-Jul-19 21:13N 50°24' W 000°37'1015.7
2014-Jul-19 20:33N 50°28' W 000°22'1615.7
2014-Jul-19 19:33N 50°32' E 000°02'1515.3
2014-Jul-19 18:33N 50°36' E 000°25'1414.2
2014-Jul-19 17:33N 50°42' E 000°46'1413.6
2014-Jul-19 16:33N 50°50' E 001°03'1312.9
2014-Jul-19 15:33N 50°59' E 001°18'1414.6
2014-Jul-19 14:34N 51°08' E 001°35'1616.0
2014-Jul-19 13:33N 51°20' E 001°52'1716.5
2014-Jul-19 12:34N 51°34' E 002°06'1615.9
2014-Jul-19 11:33N 51°46' E 002°24'1515.1
2014-Jul-19 10:33N 51°57' E 002°40'1514.3
2014-Jul-19 09:29N 52°09' E 002°56'1713.6
2014-Jul-19 08:15N 52°23' E 003°12'1313.3
2014-Jul-19 07:16N 52°33' E 003°25'1013.2
2014-Jul-19 06:32N 52°41' E 003°35'1414.2
2014-Jul-19 05:34N 52°51' E 003°50'1515.2
2014-Jul-19 04:33N 53°02' E 004°07'1515.2
2014-Jul-19 03:34N 53°13' E 004°25'1514.6
2014-Jul-19 02:33N 53°26' E 004°35'  

Dump ship's entire track history